Time;durP1;ratioP1;P1;durP2;ratioP2;P2;SDS_P1;SDS_P2;PMS_P1;PMS_P2;Temp;Humidity;BMP_temperature;BMP_pressure;BME280_temperature;BME280_humidity;BME280_pressure;Samples;Min_cycle;Max_cycle;Signal;HPM_P1;HPM_P2
2022/11/12 00:01:46;;;;;;;11.07;5.15;;;6.30;99.90;;;;;;6126791;19;19922;-65
2022/11/12 00:03:50;;;;;;;8.68;4.63;;;6.60;99.90;;;;;;6126742;19;20244;-64
2022/11/12 00:05:54;;;;;;;7.68;4.82;;;6.70;99.90;;;;;;6126665;19;19914;-65
2022/11/12 00:07:58;;;;;;;8.32;4.57;;;6.70;99.90;;;;;;6126965;19;19966;-66
2022/11/12 00:10:02;;;;;;;10.13;5.10;;;6.60;99.90;;;;;;6126552;19;19942;-65
2022/11/12 00:12:09;;;;;;;10.77;5.35;;;6.70;99.90;;;;;;6126008;19;19942;-64
2022/11/12 00:14:13;;;;;;;7.93;5.18;;;;;;;;;;6126188;19;20344;-65
2022/11/12 00:16:17;;;;;;;9.82;5.40;;;;;;;;;;6126529;19;19915;-66
2022/11/12 00:18:21;;;;;;;9.40;5.28;;;6.80;99.90;;;;;;6126253;19;19919;-64
2022/11/12 00:20:25;;;;;;;15.10;6.85;;;6.70;99.90;;;;;;6126047;19;20288;-64
2022/11/12 00:22:29;;;;;;;9.98;5.40;;;6.60;99.90;;;;;;6126385;19;19922;-64
2022/11/12 00:24:33;;;;;;;9.45;5.88;;;6.80;99.90;;;;;;6121580;19;20038;-64
2022/11/12 00:26:37;;;;;;;8.95;5.45;;;;;;;;;;6126148;19;19917;-65
2022/11/12 00:28:44;;;;;;;8.85;6.13;;;6.60;99.90;;;;;;6125751;19;19946;-63
2022/11/12 00:30:48;;;;;;;8.93;4.88;;;6.70;99.90;;;;;;6126170;19;19922;-63
2022/11/12 00:32:52;;;;;;;10.15;5.63;;;;;;;;;;6125750;19;19918;-63
2022/11/12 00:34:56;;;;;;;8.07;5.05;;;6.60;99.90;;;;;;6124177;19;19915;-64
2022/11/12 00:37:00;;;;;;;9.23;5.03;;;6.60;99.90;;;;;;6129727;19;19925;-65
2022/11/12 00:39:05;;;;;;;10.75;5.57;;;6.50;99.90;;;;;;6131190;19;19925;-64
2022/11/12 00:41:09;;;;;;;10.65;5.35;;;6.50;99.90;;;;;;6131232;19;20356;-64
2022/11/12 00:43:13;;;;;;;8.52;4.82;;;6.20;99.90;;;;;;6131101;19;20015;-64
2022/11/12 00:45:19;;;;;;;10.43;5.78;;;6.50;99.90;;;;;;6131407;19;19939;-64
2022/11/12 00:47:23;;;;;;;9.77;5.35;;;6.60;99.90;;;;;;6131093;19;20348;-65
2022/11/12 00:49:27;;;;;;;12.52;5.95;;;6.50;99.90;;;;;;6130998;19;20372;-64
2022/11/12 00:51:31;;;;;;;10.35;4.75;;;6.40;99.90;;;;;;6130936;19;19941;-65
2022/11/12 00:53:35;;;;;;;8.90;5.05;;;6.60;99.90;;;;;;6131341;19;20273;-64
2022/11/12 00:55:39;;;;;;;7.95;5.50;;;6.40;99.90;;;;;;6130162;19;19978;-65
2022/11/12 00:57:43;;;;;;;11.38;6.25;;;;;;;;;;6131315;19;19938;-64
2022/11/12 00:59:47;;;;;;;10.73;5.90;;;6.40;99.90;;;;;;6128987;19;19919;-65
2022/11/12 01:01:53;;;;;;;12.40;5.53;;;6.30;99.90;;;;;;6130922;19;19919;-64
2022/11/12 01:04:00;;;;;;;11.20;5.13;;;6.40;99.90;;;;;;6130754;19;19918;-64
2022/11/12 01:06:05;;;;;;;8.00;5.38;;;6.30;99.90;;;;;;6133675;19;19938;-65
2022/11/12 01:08:09;;;;;;;11.63;5.75;;;6.60;99.90;;;;;;6130436;19;19938;-64
2022/11/12 01:10:13;;;;;;;10.20;5.60;;;6.50;99.90;;;;;;6130464;19;19932;-64
2022/11/12 01:12:17;;;;;;;12.30;6.55;;;6.40;99.90;;;;;;6130796;19;19949;-64
2022/11/12 01:14:21;;;;;;;9.32;5.50;;;6.30;99.90;;;;;;6130449;19;19923;-64
2022/11/12 01:16:26;;;;;;;11.82;5.72;;;6.30;99.90;;;;;;6130529;19;19918;-64
2022/11/12 01:18:33;;;;;;;9.88;4.90;;;6.40;99.90;;;;;;6130198;19;19942;-64
2022/11/12 01:20:39;;;;;;;9.82;6.00;;;6.30;99.90;;;;;;6128514;19;19918;-64
2022/11/12 01:22:43;;;;;;;10.00;5.70;;;6.20;99.90;;;;;;6129977;19;20575;-64
2022/11/12 01:24:47;;;;;;;11.35;5.97;;;;;;;;;;6130255;19;19918;-64
2022/11/12 01:26:51;;;;;;;11.32;6.22;;;;;;;;;;6130022;19;19918;-64
2022/11/12 01:28:56;;;;;;;12.52;5.50;;;6.20;99.90;;;;;;6129981;19;19942;-64
2022/11/12 01:31:00;;;;;;;9.50;5.78;;;6.30;99.90;;;;;;6129685;19;19938;-64
2022/11/12 01:33:04;;;;;;;9.90;5.45;;;6.30;99.90;;;;;;6129854;19;19915;-64
2022/11/12 01:35:11;;;;;;;13.20;7.03;;;6.10;99.90;;;;;;6127971;19;19961;-64
2022/11/12 01:37:15;;;;;;;12.35;6.35;;;6.30;99.90;;;;;;6130015;19;19914;-65
2022/11/12 01:39:19;;;;;;;10.80;5.95;;;;;;;;;;6129220;19;19938;-64
2022/11/12 01:41:24;;;;;;;11.52;6.28;;;6.20;99.90;;;;;;6130055;19;19914;-64
2022/11/12 01:43:28;;;;;;;13.25;6.38;;;6.10;99.90;;;;;;6130059;19;19918;-64
2022/11/12 01:45:32;;;;;;;11.13;6.05;;;6.00;99.90;;;;;;6129802;19;20240;-64
2022/11/12 01:47:36;;;;;;;7.55;5.40;;;6.00;99.90;;;;;;6127362;19;19918;-64
2022/11/12 01:49:44;;;;;;;9.85;5.85;;;6.10;99.90;;;;;;6129409;19;19918;-64
2022/11/12 01:51:53;;;;;;;10.43;6.22;;;6.10;99.90;;;;;;6129568;19;19915;-64
2022/11/12 01:54:00;;;;;;;10.45;5.93;;;6.10;99.90;;;;;;6129449;19;19949;-64
2022/11/12 01:56:07;;;;;;;11.38;7.13;;;6.20;99.90;;;;;;6129033;19;19929;-64
2022/11/12 01:58:13;;;;;;;11.43;6.60;;;6.30;99.90;;;;;;6129521;19;19918;-64
2022/11/12 02:00:19;;;;;;;12.55;7.10;;;6.30;99.90;;;;;;6127978;19;20331;-64
2022/11/12 02:02:23;;;;;;;12.60;6.72;;;;;;;;;;6129479;19;20300;-64
2022/11/12 02:04:28;;;;;;;15.07;6.82;;;5.90;99.90;;;;;;6132039;19;19919;-64
2022/11/12 02:06:33;;;;;;;11.10;6.78;;;6.20;99.90;;;;;;6129128;19;19918;-65
2022/11/12 02:08:42;;;;;;;10.65;6.38;;;6.10;99.90;;;;;;6129536;19;20371;-65
2022/11/12 02:10:46;;;;;;;11.38;6.30;;;;;;;;;;6129135;19;19919;-65
2022/11/12 02:15:09;;;;;;;10.07;6.55;;;6.10;99.90;;;;;;6129305;19;19928;-65
2022/11/12 02:17:13;;;;;;;14.15;7.10;;;6.10;99.90;;;;;;6129380;19;19943;-65
2022/11/12 02:19:18;;;;;;;13.60;7.65;;;6.40;99.90;;;;;;6128633;19;19919;-65
2022/11/12 02:21:25;;;;;;;11.32;6.97;;;5.80;99.90;;;;;;6128912;19;20281;-65
2022/11/12 02:23:31;;;;;;;12.68;6.85;;;6.00;99.90;;;;;;6129193;19;19942;-65
2022/11/12 02:25:36;;;;;;;15.77;6.82;;;6.20;99.90;;;;;;6128890;19;19919;-65
2022/11/12 02:27:40;;;;;;;12.38;6.63;;;;;;;;;;6129254;19;20248;-66
2022/11/12 02:29:47;;;;;;;11.60;6.75;;;6.20;99.90;;;;;;6128724;19;20352;-65
2022/11/12 02:31:51;;;;;;;16.15;7.43;;;6.10;99.90;;;;;;6129276;19;19919;-65
2022/11/12 02:33:55;;;;;;;11.85;6.35;;;6.00;99.90;;;;;;6128230;19;19918;-65
2022/11/12 02:35:59;;;;;;;12.98;7.18;;;6.00;99.90;;;;;;6126800;19;19954;-65
2022/11/12 02:38:06;;;;;;;10.43;6.55;;;6.10;99.90;;;;;;6128421;19;19915;-66
2022/11/12 02:40:11;;;;;;;13.30;6.25;;;6.00;99.90;;;;;;6127696;19;19956;-65
2022/11/12 02:42:15;;;;;;;14.23;7.45;;;;;;;;;;6128511;19;19911;-65
2022/11/12 02:44:19;;;;;;;12.75;6.85;;;;;;;;;;6128328;19;19915;-65
2022/11/12 02:46:23;;;;;;;10.52;6.60;;;6.10;99.90;;;;;;6128253;19;20371;-65
2022/11/12 02:48:27;;;;;;;12.02;6.53;;;;;;;;;;6128274;19;19918;-64
2022/11/12 02:50:31;;;;;;;11.73;6.10;;;5.80;99.90;;;;;;6128633;19;19919;-65
2022/11/12 02:52:36;;;;;;;15.90;7.10;;;;;;;;;;6128754;19;19938;-65
2022/11/12 02:54:42;;;;;;;10.77;6.65;;;5.60;99.90;;;;;;6127925;19;19982;-65
2022/11/12 02:56:46;;;;;;;11.57;6.95;;;5.90;99.90;;;;;;6128235;19;19940;-65
2022/11/12 02:58:50;;;;;;;12.70;6.43;;;5.80;99.90;;;;;;6127811;19;19915;-65
2022/11/12 03:00:54;;;;;;;10.52;7.53;;;5.80;99.90;;;;;;6127006;19;19915;-65
2022/11/12 03:03:00;;;;;;;14.60;7.47;;;5.60;99.90;;;;;;6131092;19;19911;-65
2022/11/12 03:05:04;;;;;;;10.65;6.78;;;5.80;99.90;;;;;;6127953;19;20357;-65
2022/11/12 03:07:08;;;;;;;13.13;7.13;;;;;;;;;;6128096;19;19922;-65
2022/11/12 03:09:13;;;;;;;12.85;6.55;;;5.60;99.90;;;;;;6127665;19;19950;-65
2022/11/12 03:11:20;;;;;;;12.40;7.55;;;5.70;99.90;;;;;;6127798;19;19935;-65
2022/11/12 03:13:24;;;;;;;12.00;7.28;;;;;;;;;;6127711;19;20248;-64
2022/11/12 03:15:29;;;;;;;14.25;7.80;;;5.70;99.90;;;;;;6127585;19;19915;-65
2022/11/12 03:17:32;;;;;;;15.32;7.90;;;5.70;99.90;;;;;;6127955;19;19915;-65
2022/11/12 03:19:36;;;;;;;15.57;7.18;;;5.70;99.90;;;;;;6127400;19;20564;-65
2022/11/12 03:21:40;;;;;;;12.15;7.78;;;5.60;99.90;;;;;;6127486;19;19946;-65
2022/11/12 03:23:44;;;;;;;12.13;7.38;;;5.60;99.90;;;;;;6127572;19;19918;-65
2022/11/12 03:25:48;;;;;;;11.90;7.07;;;5.70;99.90;;;;;;6126985;19;20281;-65
2022/11/12 03:28:00;;;;;;;15.82;7.35;;;5.50;99.90;;;;;;6127363;19;20319;-65
2022/11/12 03:30:06;;;;;;;16.15;6.88;;;5.60;99.90;;;;;;6127350;19;20015;-65
2022/11/12 03:32:09;;;;;;;15.90;7.13;;;5.30;99.90;;;;;;6129128;19;19938;-65
2022/11/12 03:34:13;;;;;;;13.38;6.95;;;5.70;99.90;;;;;;6126414;19;19934;-64
2022/11/12 03:36:17;;;;;;;13.98;7.45;;;5.60;99.90;;;;;;6126672;19;19963;-64
2022/11/12 03:38:21;;;;;;;11.35;6.63;;;5.60;99.90;;;;;;6127352;19;19938;-65
2022/11/12 03:40:25;;;;;;;13.68;7.70;;;;;;;;;;6126329;19;19922;-64
2022/11/12 03:42:29;;;;;;;11.20;7.05;;;;;;;;;;6127348;19;19914;-65
2022/11/12 03:44:36;;;;;;;14.38;7.13;;;5.70;99.90;;;;;;6127075;19;19911;-64
2022/11/12 03:46:40;;;;;;;10.35;6.53;;;5.50;99.90;;;;;;6127265;19;19922;-64
2022/11/12 03:48:43;;;;;;;11.88;6.25;;;5.70;99.90;;;;;;6126764;19;19918;-65
2022/11/12 03:50:47;;;;;;;13.90;7.25;;;5.50;99.90;;;;;;6126825;19;19974;-64
2022/11/12 03:52:53;;;;;;;11.85;6.35;;;5.50;99.90;;;;;;6124425;19;20035;-65
2022/11/12 03:54:57;;;;;;;11.10;6.35;;;5.50;99.90;;;;;;6126574;19;19922;-65
2022/11/12 03:57:00;;;;;;;11.73;6.43;;;5.40;99.90;;;;;;6126499;19;19922;-64
2022/11/12 03:59:05;;;;;;;10.00;7.20;;;5.60;99.90;;;;;;6126879;19;20403;-64
2022/11/12 04:01:11;;;;;;;13.23;7.25;;;5.50;99.90;;;;;;6127076;19;19915;-65
2022/11/12 04:03:15;;;;;;;12.85;6.45;;;;;;;;;;6126503;19;19946;-64
2022/11/12 04:09:52;;;;;;;10.57;6.93;;;5.50;99.90;;;;;;6126672;19;19917;-64
2022/11/12 04:13:26;;;;;;;11.77;6.78;;;5.30;99.90;;;;;;6131627;19;19942;-64
2022/11/12 04:14:17;;;;;;;10.52;6.22;;;5.50;99.90;;;;;;6131711;19;19918;-64
2022/11/12 04:23:33;;;;;;;11.95;6.50;;;5.10;99.90;;;;;;6130389;19;20339;-64
2022/11/12 04:27:53;;;;;;;10.48;5.38;;;;;;;;;;6131402;19;19918;-64
2022/11/12 04:32:17;;;;;;;9.57;4.97;;;5.20;99.90;;;;;;6131480;19;20260;-66
2022/11/12 04:34:27;;;;;;;10.40;5.63;;;5.20;99.90;;;;;;6129960;19;19919;-64
2022/11/12 04:36:31;;;;;;;12.77;6.20;;;;;;;;;;6130294;19;20075;-64
2022/11/12 04:38:35;;;;;;;8.65;5.38;;;;;;;;;;6131297;19;20407;-64
2022/11/12 04:45:12;;;;;;;8.63;5.38;;;5.00;99.90;;;;;;6131120;19;19918;-64
2022/11/12 04:47:18;;;;;;;10.27;5.45;;;5.10;99.90;;;;;;6130996;19;19942;-64
2022/11/12 04:49:23;;;;;;;7.47;4.78;;;;;;;;;;6130992;19;19922;-64
2022/11/12 04:53:43;;;;;;;11.00;5.32;;;;;;;;;;6130689;19;19923;-64
2022/11/12 04:55:47;;;;;;;8.05;4.80;;;4.80;99.90;;;;;;6130733;19;19938;-64
2022/11/12 04:57:51;;;;;;;9.65;4.32;;;4.90;99.90;;;;;;6130937;19;20325;-65
2022/11/12 04:59:55;;;;;;;10.48;4.25;;;4.90;99.90;;;;;;6133026;19;19925;-64
2022/11/12 05:01:59;;;;;;;7.20;4.40;;;4.70;99.90;;;;;;6130957;19;19917;-65
2022/11/12 05:04:06;;;;;;;9.98;4.40;;;4.70;99.90;;;;;;6130628;19;19914;-64
2022/11/12 05:06:50;;;;;;;9.35;4.35;;;;;;;;;;6128981;19;19946;-64
2022/11/12 05:08:34;;;;;;;8.73;4.68;;;4.70;99.90;;;;;;6130352;19;20295;-64
2022/11/12 05:10:38;;;;;;;9.20;4.00;;;4.70;99.90;;;;;;6130651;19;19914;-64
2022/11/12 05:12:41;;;;;;;7.65;3.90;;;4.90;99.90;;;;;;6130454;19;20344;-65
2022/11/12 05:14:45;;;;;;;6.60;3.97;;;4.80;99.90;;;;;;6130687;19;20285;-64
2022/11/12 05:16:50;;;;;;;4.78;3.30;;;4.70;99.90;;;;;;6130464;19;19915;-64
2022/11/12 05:18:54;;;;;;;5.93;3.63;;;;;;;;;;6130497;19;19910;-64
2022/11/12 05:22:04;;;;;;;7.93;3.58;;;4.80;99.90;;;;;;6128863;19;20340;-64
2022/11/12 05:23:24;;;;;;;5.72;3.83;;;4.60;99.90;;;;;;6130002;19;19999;-64
2022/11/12 05:25:28;;;;;;;6.30;4.07;;;4.60;99.90;;;;;;6129622;19;19939;-64
2022/11/12 05:27:32;;;;;;;6.55;4.05;;;4.70;99.90;;;;;;6130122;19;19919;-64
2022/11/12 05:29:36;;;;;;;6.63;4.05;;;4.90;99.90;;;;;;6130026;19;19922;-64
2022/11/12 05:31:39;;;;;;;5.63;4.03;;;4.90;99.90;;;;;;6130123;19;19970;-64
2022/11/12 05:33:44;;;;;;;7.13;4.20;;;;;;;;;;6129543;19;19922;-64
2022/11/12 05:35:48;;;;;;;6.38;3.92;;;4.70;99.90;;;;;;6129845;19;19921;-64
2022/11/12 05:37:55;;;;;;;8.75;4.00;;;4.80;99.90;;;;;;6130400;19;19936;-64
2022/11/12 05:39:59;;;;;;;6.85;3.63;;;5.10;99.90;;;;;;6130704;19;20269;-65
2022/11/12 05:42:03;;;;;;;9.68;4.00;;;4.80;99.90;;;;;;6127690;19;19910;-65
2022/11/12 05:44:07;;;;;;;8.25;3.72;;;4.60;99.90;;;;;;6130124;19;19942;-64
2022/11/12 05:46:11;;;;;;;4.82;3.22;;;4.70;99.90;;;;;;6130049;19;19915;-64
2022/11/12 05:48:15;;;;;;;7.05;4.00;;;4.70;99.90;;;;;;6129505;19;20292;-64
2022/11/12 05:50:19;;;;;;;6.10;3.70;;;4.70;99.90;;;;;;6129526;19;19915;-64
2022/11/12 05:52:23;;;;;;;5.50;3.72;;;;;;;;;;6129775;19;20272;-64
2022/11/12 05:54:30;;;;;;;8.85;4.10;;;4.50;99.90;;;;;;6129834;19;20380;-65
2022/11/12 05:56:34;;;;;;;7.72;3.95;;;4.50;99.90;;;;;;6129292;19;19918;-64
2022/11/12 05:58:38;;;;;;;7.35;3.63;;;4.60;99.90;;;;;;6125557;19;20475;-64
2022/11/12 06:00:42;;;;;;;8.48;4.25;;;;;;;;;;6128795;19;19914;-66
2022/11/12 06:02:46;;;;;;;5.68;3.88;;;4.60;99.90;;;;;;6129464;19;19923;-64
2022/11/12 06:04:50;;;;;;;9.93;4.20;;;4.80;99.90;;;;;;6129346;19;19926;-64
2022/11/12 06:06:54;;;;;;;8.13;4.70;;;4.70;99.90;;;;;;6129310;19;19938;-64
2022/11/12 06:08:58;;;;;;;8.07;3.22;;;4.30;99.90;;;;;;6129080;19;19929;-64
2022/11/12 06:11:04;;;;;;;6.88;3.53;;;4.60;99.90;;;;;;6128862;19;19978;-65
2022/11/12 06:13:08;;;;;;;7.15;4.07;;;4.60;99.90;;;;;;6129005;19;19914;-64
2022/11/12 06:15:12;;;;;;;7.30;3.95;;;4.60;99.90;;;;;;6129003;19;20336;-65
2022/11/12 06:17:16;;;;;;;5.78;3.60;;;4.70;99.90;;;;;;6128817;19;19915;-64
2022/11/12 06:19:20;;;;;;;8.93;4.20;;;4.40;99.90;;;;;;6129247;19;19978;-64
2022/11/12 06:21:26;;;;;;;6.15;3.67;;;4.60;99.90;;;;;;6128240;19;19926;-64
2022/11/12 06:23:30;;;;;;;8.05;4.50;;;4.60;99.90;;;;;;6128768;19;20481;-64
2022/11/12 06:25:34;;;;;;;6.65;3.90;;;4.50;99.90;;;;;;6128701;19;19938;-65
2022/11/12 06:27:40;;;;;;;6.63;3.67;;;4.50;99.90;;;;;;6128476;19;19919;-64
2022/11/12 06:29:44;;;;;;;7.18;3.45;;;;;;;;;;6128732;19;19915;-64
2022/11/12 06:31:48;;;;;;;6.03;4.38;;;4.60;99.90;;;;;;6128435;19;19934;-65
2022/11/12 06:33:53;;;;;;;9.30;4.22;;;4.40;99.90;;;;;;6126696;19;20340;-64
2022/11/12 06:36:01;;;;;;;7.13;3.65;;;4.40;99.90;;;;;;6128081;19;20272;-64
2022/11/12 06:38:06;;;;;;;6.22;3.65;;;;;;;;;;6128658;19;20336;-64
2022/11/12 06:40:10;;;;;;;9.27;4.00;;;4.60;99.90;;;;;;6128460;19;19921;-64
2022/11/12 06:42:14;;;;;;;7.30;3.83;;;4.40;99.90;;;;;;6126998;19;19945;-64
2022/11/12 06:44:21;;;;;;;7.90;3.70;;;4.40;99.90;;;;;;6128282;19;20337;-64
2022/11/12 06:46:25;;;;;;;7.80;4.22;;;4.40;99.90;;;;;;6128689;19;19929;-64
2022/11/12 06:48:29;;;;;;;7.88;3.55;;;;;;;;;;6128351;19;19919;-64
2022/11/12 06:50:32;;;;;;;5.18;3.35;;;4.40;99.90;;;;;;6128312;19;19923;-63
2022/11/12 06:52:36;;;;;;;8.32;3.85;;;4.20;99.90;;;;;;6127857;19;19926;-64
2022/11/12 06:54:40;;;;;;;7.78;3.30;;;4.20;99.90;;;;;;6127597;19;20360;-64
2022/11/12 06:56:45;;;;;;;7.38;3.97;;;;;;;;;;6129258;19;19931;-64
2022/11/12 06:58:49;;;;;;;7.32;3.63;;;4.30;99.90;;;;;;6127737;19;20209;-64
2022/11/12 07:00:55;;;;;;;4.72;3.42;;;4.30;99.90;;;;;;6128027;19;19942;-63
2022/11/12 07:02:59;;;;;;;7.65;3.22;;;;;;;;;;6127818;19;19915;-64
2022/11/12 07:05:03;;;;;;;7.40;3.60;;;4.30;99.90;;;;;;6128068;19;19914;-64
2022/11/12 07:07:07;;;;;;;8.32;4.13;;;4.40;99.90;;;;;;6127751;19;20241;-64
2022/11/12 07:09:11;;;;;;;8.43;3.60;;;4.40;99.90;;;;;;6127620;19;19924;-64
2022/11/12 07:11:15;;;;;;;6.35;3.72;;;4.30;99.90;;;;;;6127668;19;19957;-64
2022/11/12 07:13:19;;;;;;;7.57;4.07;;;;;;;;;;6128287;19;19933;-64
2022/11/12 07:15:23;;;;;;;4.75;3.33;;;4.30;99.90;;;;;;6128052;19;19922;-64
2022/11/12 07:17:29;;;;;;;7.57;3.00;;;4.40;99.90;;;;;;6127650;19;20324;-64
2022/11/12 07:19:33;;;;;;;6.82;3.40;;;4.00;99.90;;;;;;6127234;19;20265;-64
2022/11/12 07:21:37;;;;;;;7.65;3.67;;;4.40;99.90;;;;;;6120918;19;20408;-64
2022/11/12 07:23:41;;;;;;;6.80;3.65;;;;;;;;;;6127242;19;20599;-64
2022/11/12 07:25:45;;;;;;;6.78;3.97;;;;;;;;;;6127312;19;19922;-64
2022/11/12 07:27:49;;;;;;;5.07;3.47;;;4.40;99.90;;;;;;6127403;19;20276;-64
2022/11/12 07:29:53;;;;;;;4.65;3.22;;;4.50;99.90;;;;;;6126954;19;20315;-64
2022/11/12 07:31:57;;;;;;;6.72;3.45;;;4.60;99.90;;;;;;6127049;19;19921;-64
2022/11/12 07:34:04;;;;;;;8.60;3.65;;;4.40;99.90;;;;;;6126283;19;20372;-64
2022/11/12 07:36:10;;;;;;;8.73;4.50;;;4.10;99.90;;;;;;6126947;19;19938;-64
2022/11/12 07:38:14;;;;;;;6.97;4.20;;;;;;;;;;6126895;19;20340;-64
2022/11/12 07:40:18;;;;;;;8.20;4.20;;;4.40;99.90;;;;;;6127116;19;19938;-64
2022/11/12 07:42:22;;;;;;;7.03;4.32;;;;;;;;;;6125768;19;19922;-64
2022/11/12 07:44:26;;;;;;;6.90;3.30;;;;;;;;;;6126118;19;19915;-64
2022/11/12 07:46:30;;;;;;;5.75;3.72;;;;;;;;;;6125129;19;19919;-64
2022/11/12 07:48:35;;;;;;;7.80;3.63;;;4.60;99.90;;;;;;6126647;19;20241;-64
2022/11/12 07:50:41;;;;;;;8.73;4.00;;;4.70;99.90;;;;;;6126566;19;19914;-64
2022/11/12 07:52:45;;;;;;;8.05;4.30;;;4.70;99.90;;;;;;6126558;19;19942;-64
2022/11/12 07:54:49;;;;;;;9.75;3.88;;;4.80;99.90;;;;;;6126547;19;19915;-65
2022/11/12 07:56:53;;;;;;;7.70;4.13;;;4.60;99.90;;;;;;6126991;19;19910;-65
2022/11/12 07:58:57;;;;;;;8.88;4.13;;;4.60;99.90;;;;;;6126563;19;19915;-64
2022/11/12 08:01:09;;;;;;;7.88;3.70;;;4.70;99.90;;;;;;6126658;19;20446;-65
2022/11/12 08:03:13;;;;;;;8.85;5.25;;;4.80;99.90;;;;;;6126308;19;19918;-64
2022/11/12 08:05:17;;;;;;;5.85;3.80;;;4.80;99.90;;;;;;6128253;19;19914;-64
2022/11/12 08:07:24;;;;;;;6.20;3.80;;;4.80;99.90;;;;;;6126298;19;19918;-64
2022/11/12 08:09:28;;;;;;;7.10;4.28;;;5.00;99.90;;;;;;6126144;19;19925;-64
2022/11/12 08:11:31;;;;;;;6.30;4.18;;;4.80;99.90;;;;;;6126024;19;19918;-64
2022/11/12 08:13:35;;;;;;;9.50;4.50;;;4.60;99.90;;;;;;6125990;19;19930;-64
2022/11/12 08:15:39;;;;;;;8.30;4.40;;;;;;;;;;6126271;19;19918;-64
2022/11/12 08:17:43;;;;;;;10.50;4.78;;;4.80;99.90;;;;;;6125465;19;19923;-64
2022/11/12 08:19:47;;;;;;;6.82;4.25;;;5.00;99.90;;;;;;6125847;19;19923;-64
2022/11/12 08:21:51;;;;;;;7.57;4.20;;;;;;;;;;6125282;19;20241;-64
2022/11/12 08:23:58;;;;;;;7.95;4.07;;;5.00;99.90;;;;;;6126232;19;20422;-64
2022/11/12 08:26:02;;;;;;;8.45;4.88;;;4.90;99.90;;;;;;6125198;19;19914;-64
2022/11/12 08:28:06;;;;;;;6.65;4.40;;;;;;;;;;6125803;19;20332;-65
2022/11/12 08:30:12;;;;;;;9.00;4.75;;;5.10;99.90;;;;;;6125556;19;19914;-65
2022/11/12 08:32:17;;;;;;;7.75;4.40;;;4.80;99.90;;;;;;6126058;19;19922;-64
2022/11/12 08:34:21;;;;;;;7.05;4.22;;;;;;;;;;6124277;19;20277;-64
2022/11/12 08:36:25;;;;;;;8.75;4.70;;;5.00;99.90;;;;;;6124523;19;19918;-66
2022/11/12 08:38:29;;;;;;;7.28;4.47;;;5.30;99.90;;;;;;6125099;19;20340;-64
2022/11/12 08:40:36;;;;;;;9.50;4.72;;;5.00;99.90;;;;;;6125318;19;19962;-64
2022/11/12 08:42:40;;;;;;;7.78;5.15;;;5.30;99.90;;;;;;6124444;19;19925;-64
2022/11/12 08:44:44;;;;;;;8.00;4.75;;;5.20;99.90;;;;;;6125104;19;19927;-64
2022/11/12 08:46:48;;;;;;;9.25;5.20;;;;;;;;;;6125232;19;19938;-65
2022/11/12 08:48:51;;;;;;;9.98;5.38;;;5.60;99.90;;;;;;6124880;19;19918;-64
2022/11/12 08:50:56;;;;;;;10.80;5.90;;;;;;;;;;6124805;19;19911;-64
2022/11/12 08:53:03;;;;;;;7.35;4.80;;;5.90;99.90;;;;;;6123740;19;19918;-65
2022/11/12 08:55:08;;;;;;;10.45;5.18;;;5.70;99.90;;;;;;6128103;19;19922;-64
2022/11/12 08:57:15;;;;;;;8.68;5.32;;;6.10;99.90;;;;;;6127824;19;19918;-64
2022/11/12 08:59:19;;;;;;;15.75;5.20;;;5.70;99.90;;;;;;6130717;19;19999;-64
2022/11/12 09:01:22;;;;;;;11.50;5.30;;;5.80;99.90;;;;;;6130385;19;19910;-63
2022/11/12 09:03:27;;;;;;;12.05;6.25;;;6.00;99.90;;;;;;6128362;19;19918;-64
2022/11/12 09:05:32;;;;;;;12.10;6.07;;;6.10;99.90;;;;;;6130456;19;19915;-63
2022/11/12 09:07:36;;;;;;;13.98;6.32;;;;;;;;;;6130336;19;19914;-64
2022/11/12 09:09:39;;;;;;;25.42;8.18;;;5.90;99.90;;;;;;6130880;19;19934;-63
2022/11/12 09:11:43;;;;;;;22.65;8.02;;;5.90;99.90;;;;;;6130198;19;19923;-64
2022/11/12 09:13:50;;;;;;;24.00;9.02;;;7.10;99.90;;;;;;6130780;19;19917;-64
2022/11/12 09:15:54;;;;;;;24.52;8.85;;;;;;;;;;6130106;19;19950;-63
2022/11/12 09:17:58;;;;;;;27.33;8.73;;;6.00;99.90;;;;;;6130008;19;19918;-64
2022/11/12 09:20:02;;;;;;;27.60;9.10;;;6.10;99.90;;;;;;6130165;19;20309;-64
2022/11/12 09:22:07;;;;;;;34.92;9.88;;;6.00;99.90;;;;;;6129303;19;20237;-64
2022/11/12 09:24:10;;;;;;;39.97;11.18;;;6.50;99.90;;;;;;6129889;19;19930;-64
2022/11/12 09:26:14;;;;;;;62.88;10.30;;;6.20;99.90;;;;;;6129480;19;19923;-64
2022/11/12 09:28:19;;;;;;;61.80;10.60;;;6.20;99.90;;;;;;6129610;19;20304;-64
2022/11/12 09:30:26;;;;;;;37.28;11.10;;;6.10;99.90;;;;;;6129946;19;19914;-64
2022/11/12 09:32:30;;;;;;;39.85;10.70;;;6.50;99.90;;;;;;6129477;19;19926;-64
2022/11/12 09:34:35;;;;;;;58.40;11.85;;;;;;;;;;6128715;19;19939;-63
2022/11/12 09:36:39;;;;;;;46.35;12.18;;;6.20;99.90;;;;;;6128707;19;19926;-64
2022/11/12 09:38:42;;;;;;;35.72;10.13;;;6.50;99.90;;;;;;6129452;19;19914;-64
2022/11/12 09:41:00;;;;;;;55.58;11.30;;;6.60;99.90;;;;;;6129531;19;19914;-64
2022/11/12 09:43:17;;;;;;;43.97;11.05;;;6.30;99.90;;;;;;6128024;19;19950;-64
2022/11/12 09:45:30;;;;;;;51.05;12.02;;;6.40;99.90;;;;;;6129430;19;19939;-64
2022/11/12 09:47:37;;;;;;;52.80;12.48;;;6.40;99.90;;;;;;6129104;19;19978;-64
2022/11/12 09:49:49;;;;;;;58.65;13.20;;;6.30;99.90;;;;;;6129321;19;19922;-64
2022/11/12 09:51:56;;;;;;;72.40;12.25;;;6.70;99.90;;;;;;6128913;19;19970;-65
2022/11/12 09:54:03;;;;;;;77.75;12.05;;;6.90;99.90;;;;;;6129115;19;19915;-64
2022/11/12 09:56:09;;;;;;;68.38;12.27;;;6.70;99.90;;;;;;6128873;19;19934;-64
2022/11/12 09:58:14;;;;;;;96.65;13.15;;;7.00;99.90;;;;;;6129129;19;19918;-64
2022/11/12 10:00:19;;;;;;;110.03;14.00;;;6.90;99.90;;;;;;6129212;19;20336;-64
2022/11/12 10:02:32;;;;;;;93.55;14.00;;;6.60;99.90;;;;;;6128719;19;20308;-64
2022/11/12 10:05:15;;;;;;;91.45;14.02;;;6.90;99.90;;;;;;6128908;19;19914;-64
2022/11/12 10:07:34;;;;;;;74.63;12.80;;;6.90;99.90;;;;;;6126979;19;20011;-65
2022/11/12 10:09:46;;;;;;;47.70;12.07;;;7.10;99.90;;;;;;6127508;19;19943;-64
2022/11/12 10:14:31;;;;;;;96.20;14.07;;;7.10;99.90;;;;;;6128624;19;19911;-64
2022/11/12 10:16:47;;;;;;;80.03;12.75;;;7.50;99.90;;;;;;6128506;19;19919;-64
2022/11/12 10:19:13;;;;;;;45.72;11.15;;;7.20;99.90;;;;;;6128873;19;19914;-64
2022/11/12 10:21:22;;;;;;;;;;;7.60;99.90;;;;;;6129324;19;19915;-64
2022/11/12 10:23:30;;;;;;;49.47;12.95;;;7.70;99.90;;;;;;6126855;19;19938;-64
2022/11/12 10:25:35;;;;;;;60.10;12.07;;;6.80;99.90;;;;;;6127844;19;20308;-64
2022/11/12 10:27:42;;;;;;;77.78;14.82;;;6.90;99.90;;;;;;6127945;19;19939;-64
2022/11/12 10:29:53;;;;;;;34.58;13.90;;;7.20;99.90;;;;;;6128134;19;20332;-64
2022/11/12 10:31:57;;;;;;;44.00;12.63;;;7.50;99.90;;;;;;6128093;19;19922;-65
2022/11/12 10:34:17;;;;;;;55.72;12.98;;;7.10;99.90;;;;;;6127817;19;19928;-64
2022/11/12 10:36:32;;;;;;;38.30;12.23;;;7.30;99.90;;;;;;6127825;19;19938;-65
2022/11/12 10:38:37;;;;;;;34.80;12.60;;;7.60;99.90;;;;;;6128261;19;19921;-66
2022/11/12 10:40:42;;;;;;;27.23;12.85;;;7.20;99.90;;;;;;6128558;19;20518;-65
2022/11/12 10:42:59;;;;;;;24.75;12.43;;;7.10;99.90;;;;;;6127465;19;19938;-64
2022/11/12 10:45:21;;;;;;;20.55;11.63;;;7.40;99.90;;;;;;6128465;19;19926;-64
2022/11/12 10:47:30;;;;;;;23.35;12.55;;;7.70;99.90;;;;;;6128223;19;19927;-64
2022/11/12 10:49:36;;;;;;;21.58;11.57;;;7.90;99.90;;;;;;6128238;19;19915;-64
2022/11/12 10:51:40;;;;;;;24.60;11.43;;;7.40;99.90;;;;;;6130549;19;19918;-64
2022/11/12 10:53:44;;;;;;;24.50;11.32;;;;;;;;;;6127862;19;19921;-64
2022/11/12 10:55:58;;;;;;;17.85;10.75;;;7.50;99.90;;;;;;6127642;19;19946;-64
2022/11/12 10:58:15;;;;;;;20.33;11.27;;;7.60;99.90;;;;;;6127183;19;19907;-64
2022/11/12 11:00:22;;;;;;;19.30;10.25;;;7.70;99.90;;;;;;6127555;19;19919;-64
2022/11/12 11:02:26;;;;;;;21.48;11.10;;;8.10;99.90;;;;;;6126786;19;19938;-64
2022/11/12 11:04:32;;;;;;;19.50;9.85;;;8.80;99.90;;;;;;6127499;19;19914;-64
2022/11/12 11:06:39;;;;;;;17.67;9.80;;;7.80;99.90;;;;;;6127328;19;19921;-64
2022/11/12 11:08:45;;;;;;;18.35;10.38;;;7.90;99.90;;;;;;6127717;19;19922;-64
2022/11/12 11:10:48;;;;;;;17.63;10.48;;;7.90;99.90;;;;;;6127622;19;19914;-64
2022/11/12 11:13:10;;;;;;;18.45;10.32;;;7.90;99.90;;;;;;6127576;19;19921;-64
2022/11/12 11:15:22;;;;;;;19.48;9.73;;;8.60;99.90;;;;;;6126966;19;20511;-64
2022/11/12 11:17:26;;;;;;;16.00;9.38;;;;;;;;;;6127432;19;19942;-63
2022/11/12 11:19:36;;;;;;;14.57;8.85;;;8.10;99.90;;;;;;6126510;19;19915;-64
2022/11/12 11:21:59;;;;;;;13.23;8.07;;;8.00;99.90;;;;;;6127745;19;19918;-64
2022/11/12 11:24:15;;;;;;;11.88;7.68;;;8.40;99.90;;;;;;6126242;19;19919;-63
2022/11/12 11:26:31;;;;;;;12.43;8.10;;;8.50;99.90;;;;;;6126724;19;20293;-64
2022/11/12 11:28:41;;;;;;;16.30;8.10;;;8.40;99.90;;;;;;6127107;19;19910;-63
2022/11/12 11:30:53;;;;;;;15.70;8.82;;;8.40;99.90;;;;;;6127268;19;19934;-64
2022/11/12 11:33:21;;;;;;;13.98;8.88;;;8.30;99.90;;;;;;6127004;19;19922;-64
2022/11/12 11:35:31;;;;;;;12.93;8.60;;;8.40;99.90;;;;;;6126197;19;19918;-64
2022/11/12 11:37:48;;;;;;;15.18;8.23;;;8.30;99.90;;;;;;6125541;19;20320;-64
2022/11/12 11:40:03;;;;;;;14.20;9.27;;;8.40;99.90;;;;;;6126788;19;19950;-64